Time;durP1;ratioP1;P1;durP2;ratioP2;P2;SDS_P1;SDS_P2;PMS_P1;PMS_P2;Temp;Humidity;BMP_temperature;BMP_pressure;BME280_temperature;BME280_humidity;BME280_pressure;Samples;Min_cycle;Max_cycle;Signal;HPM_P1;HPM_P2
2023/04/08 00:00:37;;;;;;;16.50;10.52;;;5.90;99.90;;;;;;4992443;28;20040;-78
2023/04/08 00:03:04;;;;;;;10.75;8.63;;;5.90;99.90;;;;;;5007909;28;20590;-78
2023/04/08 00:05:30;;;;;;;9.85;7.90;;;5.90;99.90;;;;;;5012394;28;20973;-78
2023/04/08 00:07:56;;;;;;;10.45;7.88;;;5.80;99.90;;;;;;5015968;28;20079;-78
2023/04/08 00:10:25;;;;;;;10.73;8.45;;;5.80;99.90;;;;;;5009412;28;20040;-78
2023/04/08 00:12:51;;;;;;;9.98;7.55;;;5.80;99.90;;;;;;5014676;28;20055;-79
2023/04/08 00:15:17;;;;;;;11.00;8.45;;;5.80;99.90;;;;;;5019780;28;20036;-78
2023/04/08 00:17:44;;;;;;;9.88;7.55;;;5.70;99.90;;;;;;4997999;28;21308;-78
2023/04/08 00:20:11;;;;;;;10.35;8.18;;;5.70;99.90;;;;;;5008470;28;20060;-78
2023/04/08 00:22:37;;;;;;;11.27;8.07;;;5.70;99.90;;;;;;4990471;28;20472;-78
2023/04/08 00:25:05;;;;;;;11.07;8.63;;;5.70;99.90;;;;;;5012709;28;20705;-78
2023/04/08 00:27:32;;;;;;;9.43;7.65;;;5.70;99.90;;;;;;5011081;28;20684;-78
2023/04/08 00:30:02;;;;;;;12.27;9.20;;;5.70;99.90;;;;;;5011765;28;20039;-78
2023/04/08 00:32:28;;;;;;;12.07;9.25;;;5.70;99.90;;;;;;4990057;28;20044;-78
2023/04/08 00:34:55;;;;;;;10.00;8.02;;;5.70;99.90;;;;;;4998248;28;20036;-78
2023/04/08 00:37:22;;;;;;;15.00;11.02;;;5.60;99.90;;;;;;5000537;28;20040;-78
2023/04/08 00:39:48;;;;;;;13.13;9.65;;;5.60;99.90;;;;;;5014497;28;20041;-78
2023/04/08 00:42:15;;;;;;;12.70;9.32;;;5.60;99.90;;;;;;4991737;28;20791;-78
2023/04/08 00:44:41;;;;;;;10.52;8.20;;;5.60;99.90;;;;;;4980567;28;20451;-78
2023/04/08 00:47:11;;;;;;;9.35;7.53;;;5.60;99.90;;;;;;5010799;28;20032;-78
2023/04/08 00:49:38;;;;;;;8.90;6.72;;;5.50;99.90;;;;;;4993530;28;20032;-79
2023/04/08 00:52:04;;;;;;;8.18;5.13;;;5.50;99.90;;;;;;4988139;28;20029;-78
2023/04/08 00:54:30;;;;;;;7.47;5.00;;;5.40;99.90;;;;;;4986616;28;20123;-79
2023/04/08 00:57:00;;;;;;;7.45;3.47;;;5.30;99.90;;;;;;5017513;28;20025;-78
2023/04/08 00:59:28;;;;;;;7.85;4.35;;;5.30;99.90;;;;;;5014043;28;20048;-79
2023/04/08 01:02:05;;;;;;;23.25;5.22;;;5.20;99.90;;;;;;5027099;28;20375;-78
2023/04/08 01:05:04;;;;;;;10.55;4.50;;;5.20;99.90;;;;;;4993776;28;20052;-78
2023/04/08 01:07:33;;;;;;;23.40;4.22;;;5.20;99.90;;;;;;5012359;28;22767;-78
2023/04/08 01:10:11;;;;;;;43.05;4.38;;;5.10;99.90;;;;;;5031155;28;20037;-78
2023/04/08 01:12:47;;;;;;;78.97;5.60;;;5.20;99.90;;;;;;4990637;28;20491;-78
2023/04/08 01:15:14;;;;;;;92.40;6.90;;;5.10;99.90;;;;;;5015908;28;20037;-78
2023/04/08 01:17:43;;;;;;;57.85;7.30;;;5.10;99.90;;;;;;4998528;28;20043;-79
2023/04/08 01:20:11;;;;;;;58.38;7.32;;;5.10;99.90;;;;;;5009239;28;20060;-77
2023/04/08 01:23:00;;;;;;;46.83;7.22;;;5.10;99.90;;;;;;5006746;28;20040;-78
2023/04/08 01:25:31;;;;;;;34.50;6.60;;;5.00;99.90;;;;;;4996802;28;20044;-78
2023/04/08 01:28:05;;;;;;;7.15;6.00;;;4.90;99.90;;;;;;5014186;28;20025;-78
2023/04/08 01:30:32;;;;;;;5.10;4.60;;;4.90;99.90;;;;;;4991531;28;20047;-78
2023/04/08 01:33:01;;;;;;;18.90;6.53;;;4.90;99.90;;;;;;5005851;28;20041;-78
2023/04/08 01:35:29;;;;;;;14.90;4.65;;;4.80;99.90;;;;;;5011038;28;20024;-78
2023/04/08 01:37:58;;;;;;;6.05;5.45;;;4.70;99.90;;;;;;5016015;28;20691;-78
2023/04/08 01:40:25;;;;;;;6.93;6.22;;;4.70;99.90;;;;;;5027774;28;20526;-78
2023/04/08 01:42:55;;;;;;;7.18;6.43;;;4.60;99.90;;;;;;5007745;28;21590;-78
2023/04/08 01:45:22;;;;;;;5.95;5.35;;;4.60;99.90;;;;;;4999590;28;20033;-77
2023/04/08 01:47:50;;;;;;;8.32;5.93;;;4.50;99.90;;;;;;4995807;28;20051;-78
2023/04/08 01:50:17;;;;;;;8.68;6.85;;;4.40;99.90;;;;;;4992484;28;20048;-78
2023/04/08 01:52:44;;;;;;;5.47;4.97;;;4.40;99.90;;;;;;5006203;28;20044;-78
2023/04/08 01:55:12;;;;;;;15.80;5.53;;;4.40;99.90;;;;;;5008445;28;20036;-78
2023/04/08 01:57:39;;;;;;;14.65;5.85;;;4.30;99.90;;;;;;4998418;28;20041;-78
2023/04/08 02:00:11;;;;;;;12.45;5.72;;;4.30;99.90;;;;;;4996959;28;20071;-77
2023/04/08 02:02:47;;;;;;;11.52;6.25;;;4.20;99.90;;;;;;5025954;28;20032;-78
2023/04/08 02:05:14;;;;;;;8.90;5.82;;;4.20;99.90;;;;;;5016362;28;20047;-78
2023/04/08 02:07:41;;;;;;;11.48;6.45;;;4.20;99.90;;;;;;4983871;28;20744;-78
2023/04/08 02:10:07;;;;;;;13.15;5.68;;;4.10;99.90;;;;;;4995360;28;20885;-78
2023/04/08 02:12:34;;;;;;;11.77;7.50;;;4.10;99.90;;;;;;4978622;28;20037;-78
2023/04/08 02:15:00;;;;;;;11.85;8.98;;;4.00;99.90;;;;;;5003636;28;20716;-78
2023/04/08 02:17:38;;;;;;;11.60;8.57;;;4.00;99.90;;;;;;5005137;28;20419;-78
2023/04/08 02:20:19;;;;;;;22.15;6.80;;;4.00;99.90;;;;;;5011578;28;20040;-78
2023/04/08 02:23:17;;;;;;;13.27;5.45;;;4.00;99.90;;;;;;5010061;28;20036;-78
2023/04/08 02:25:45;;;;;;;12.00;5.70;;;3.90;99.90;;;;;;4978607;28;20737;-79
2023/04/08 02:28:12;;;;;;;6.80;5.03;;;3.90;99.90;;;;;;5000102;28;20040;-79
2023/04/08 02:30:47;;;;;;;6.15;5.18;;;3.80;99.90;;;;;;4979640;28;20036;-77
2023/04/08 02:33:15;;;;;;;8.25;6.93;;;3.80;99.90;;;;;;5004975;28;20043;-79
2023/04/08 02:35:43;;;;;;;10.05;6.97;;;3.70;99.90;;;;;;5016424;28;20463;-79
2023/04/08 02:38:10;;;;;;;7.50;6.28;;;3.70;99.90;;;;;;5004166;28;20048;-78
2023/04/08 02:40:36;;;;;;;8.60;6.63;;;3.60;99.90;;;;;;5012047;28;20483;-79
2023/04/08 02:43:03;;;;;;;13.30;8.55;;;3.60;99.90;;;;;;5028818;28;20039;-78
2023/04/08 02:45:31;;;;;;;12.68;9.48;;;3.60;99.90;;;;;;5034494;28;20581;-78
2023/04/08 02:48:00;;;;;;;12.88;9.07;;;3.50;99.90;;;;;;5014410;28;20047;-78
2023/04/08 02:50:26;;;;;;;9.38;8.27;;;3.50;99.90;;;;;;4992643;28;20438;-78
2023/04/08 02:52:53;;;;;;;11.57;9.50;;;3.50;99.90;;;;;;4994198;28;20048;-78
2023/04/08 02:55:19;;;;;;;10.23;8.63;;;3.50;99.90;;;;;;5002970;28;20207;-78
2023/04/08 02:57:46;;;;;;;12.30;10.10;;;3.40;99.90;;;;;;5019297;28;20059;-78
2023/04/08 03:00:13;;;;;;;12.33;9.83;;;3.50;99.90;;;;;;5016372;28;20101;-79
2023/04/08 03:02:40;;;;;;;14.18;11.38;;;3.40;99.90;;;;;;4992695;28;20044;-78
2023/04/08 03:05:07;;;;;;;16.17;12.27;;;3.50;99.90;;;;;;5032707;28;20041;-78
2023/04/08 03:07:33;;;;;;;13.68;11.10;;;3.40;99.90;;;;;;5011707;28;20068;-78
2023/04/08 03:10:00;;;;;;;12.02;9.80;;;3.40;99.90;;;;;;5031610;28;20032;-78
2023/04/08 03:12:27;;;;;;;15.67;12.07;;;3.40;99.90;;;;;;5005246;28;20487;-78
2023/04/08 03:14:53;;;;;;;15.30;12.13;;;3.40;99.90;;;;;;5033402;28;20028;-78
2023/04/08 03:17:20;;;;;;;14.48;11.80;;;3.40;99.90;;;;;;5000194;28;20119;-78
2023/04/08 03:19:46;;;;;;;14.37;10.70;;;3.40;99.90;;;;;;5015228;28;20544;-78
2023/04/08 03:22:13;;;;;;;13.57;10.55;;;3.40;99.90;;;;;;5006466;28;20051;-78
2023/04/08 03:24:39;;;;;;;14.70;11.87;;;3.40;99.90;;;;;;5031517;28;20044;-78
2023/04/08 03:27:07;;;;;;;18.63;14.60;;;3.40;99.90;;;;;;5013059;28;20258;-78
2023/04/08 03:29:33;;;;;;;18.63;14.32;;;3.40;99.90;;;;;;5014162;28;20052;-79
2023/04/08 03:32:00;;;;;;;17.27;13.88;;;3.40;99.90;;;;;;5008334;28;20037;-78
2023/04/08 03:34:26;;;;;;;16.00;11.37;;;3.30;99.90;;;;;;5012757;28;20495;-78
2023/04/08 03:36:52;;;;;;;18.30;13.93;;;3.30;99.90;;;;;;5035895;28;20043;-78
2023/04/08 03:39:18;;;;;;;17.55;14.00;;;3.30;99.90;;;;;;5035450;28;20562;-78
2023/04/08 03:41:45;;;;;;;17.90;14.95;;;3.30;99.90;;;;;;4976746;28;20372;-79
2023/04/08 03:44:11;;;;;;;17.75;14.57;;;3.30;99.90;;;;;;5029603;28;20396;-78
2023/04/08 03:46:37;;;;;;;24.20;18.55;;;3.30;99.90;;;;;;4997303;28;20040;-78
2023/04/08 03:49:03;;;;;;;20.63;16.75;;;3.30;99.90;;;;;;5011756;28;20035;-79
2023/04/08 03:51:30;;;;;;;20.23;16.35;;;3.30;99.90;;;;;;4981471;28;20048;-77
2023/04/08 03:53:56;;;;;;;19.67;15.32;;;3.30;99.90;;;;;;5009148;28;20043;-78
2023/04/08 03:56:23;;;;;;;18.97;14.07;;;3.30;99.90;;;;;;4996369;28;20578;-78
2023/04/08 03:58:50;;;;;;;19.70;16.23;;;3.30;99.90;;;;;;5015886;28;20036;-78
2023/04/08 04:01:16;;;;;;;25.23;19.30;;;3.30;99.90;;;;;;5030192;28;20055;-78
2023/04/08 04:03:42;;;;;;;20.03;15.83;;;3.30;99.90;;;;;;5009958;28;20048;-78
2023/04/08 04:06:09;;;;;;;25.50;18.33;;;3.20;99.90;;;;;;5012828;28;20041;-79
2023/04/08 04:08:35;;;;;;;21.00;15.82;;;3.30;99.90;;;;;;4979778;28;20053;-78
2023/04/08 04:11:02;;;;;;;19.63;15.77;;;3.30;99.90;;;;;;5007606;28;20075;-78
2023/04/08 04:13:28;;;;;;;25.25;19.95;;;3.20;99.90;;;;;;4991326;28;20044;-78
2023/04/08 04:15:55;;;;;;;23.07;17.57;;;3.20;99.90;;;;;;4997965;28;20047;-78
2023/04/08 04:18:21;;;;;;;20.48;15.88;;;3.30;99.90;;;;;;5035428;28;20043;-78
2023/04/08 04:20:48;;;;;;;24.75;19.17;;;3.20;99.90;;;;;;5029580;28;20835;-78
2023/04/08 04:23:14;;;;;;;25.08;17.70;;;3.20;99.90;;;;;;4992989;28;20565;-78
2023/04/08 04:25:41;;;;;;;22.00;17.50;;;3.20;99.90;;;;;;4997401;28;20471;-78
2023/04/08 04:28:08;;;;;;;23.50;18.13;;;3.20;99.90;;;;;;5030690;28;20041;-78
2023/04/08 04:30:39;;;;;;;24.07;16.70;;;3.20;99.90;;;;;;5007361;28;20063;-78
2023/04/08 04:33:06;;;;;;;25.80;19.03;;;3.20;99.90;;;;;;5009615;28;20395;-77
2023/04/08 04:35:32;;;;;;;22.98;17.50;;;3.10;99.90;;;;;;5014216;28;20033;-78
2023/04/08 04:37:59;;;;;;;24.83;19.87;;;3.10;99.90;;;;;;5015945;28;20032;-77
2023/04/08 04:40:25;;;;;;;37.63;27.90;;;3.10;99.90;;;;;;4998818;28;20800;-77
2023/04/08 04:42:52;;;;;;;32.73;23.57;;;3.10;99.90;;;;;;5007918;28;20388;-78
2023/04/08 04:45:18;;;;;;;29.15;21.42;;;3.10;99.90;;;;;;5012085;28;20039;-78
2023/04/08 04:47:44;;;;;;;28.53;22.40;;;3.10;99.90;;;;;;5010239;28;20047;-77
2023/04/08 04:50:10;;;;;;;28.40;20.63;;;3.00;99.90;;;;;;5008480;28;20024;-77
2023/04/08 04:52:37;;;;;;;31.90;22.67;;;3.00;99.90;;;;;;5006220;28;20036;-77
2023/04/08 04:55:04;;;;;;;26.00;19.97;;;3.10;99.90;;;;;;5012701;28;20049;-77
2023/04/08 04:57:30;;;;;;;29.05;21.75;;;3.00;99.90;;;;;;5015658;28;20032;-77
2023/04/08 04:59:56;;;;;;;26.08;19.17;;;3.00;99.90;;;;;;5012895;28;20044;-77
2023/04/08 05:02:22;;;;;;;23.83;18.90;;;3.00;99.90;;;;;;5022467;28;20381;-78
2023/04/08 05:04:49;;;;;;;24.90;19.73;;;3.00;99.90;;;;;;5008194;28;20478;-77
2023/04/08 05:07:15;;;;;;;27.17;20.70;;;3.00;99.90;;;;;;4994013;28;20040;-77
2023/04/08 05:09:41;;;;;;;24.13;19.77;;;3.00;99.90;;;;;;5011608;28;20036;-77
2023/04/08 05:12:08;;;;;;;32.03;22.17;;;3.00;99.90;;;;;;5006374;28;21270;-77
2023/04/08 05:14:34;;;;;;;29.55;21.05;;;3.00;99.90;;;;;;5010666;28;20059;-77
2023/04/08 05:17:00;;;;;;;25.80;20.00;;;3.00;99.90;;;;;;5017039;28;20585;-77
2023/04/08 05:19:27;;;;;;;23.13;18.23;;;3.00;99.90;;;;;;4999137;28;20040;-77
2023/04/08 05:21:53;;;;;;;29.30;20.97;;;3.00;99.90;;;;;;5007197;28;20057;-77
2023/04/08 05:24:19;;;;;;;24.87;18.40;;;3.10;99.90;;;;;;5028218;28;20385;-77
2023/04/08 05:26:47;;;;;;;23.42;18.30;;;3.10;99.90;;;;;;5012274;28;20036;-77
2023/04/08 05:29:14;;;;;;;23.03;17.20;;;3.10;99.90;;;;;;5029202;28;20037;-77
2023/04/08 05:31:40;;;;;;;27.23;19.07;;;3.20;99.90;;;;;;5026678;28;20571;-77
2023/04/08 05:34:06;;;;;;;22.57;16.63;;;3.20;99.90;;;;;;5007460;28;21079;-77
2023/04/08 05:36:33;;;;;;;22.75;17.45;;;3.30;99.90;;;;;;5013784;28;20037;-78
2023/04/08 05:38:59;;;;;;;19.73;15.43;;;3.30;99.90;;;;;;5020070;28;20037;-77
2023/04/08 05:41:26;;;;;;;22.47;15.70;;;3.30;99.90;;;;;;4999545;28;20522;-77
2023/04/08 05:43:52;;;;;;;20.95;16.80;;;3.40;99.90;;;;;;5033306;28;20029;-77
2023/04/08 05:46:18;;;;;;;20.30;16.58;;;3.40;99.90;;;;;;5002889;28;20384;-78
2023/04/08 05:48:45;;;;;;;23.00;17.75;;;3.50;99.90;;;;;;5014123;28;20415;-77
2023/04/08 05:51:15;;;;;;;23.88;17.13;;;3.50;99.90;;;;;;5011299;28;20028;-77
2023/04/08 05:53:41;;;;;;;21.37;16.60;;;3.60;99.90;;;;;;5029956;28;20039;-78
2023/04/08 05:56:07;;;;;;;20.02;15.75;;;3.70;99.90;;;;;;5028537;28;20237;-77
2023/04/08 05:58:34;;;;;;;20.75;17.45;;;3.70;99.90;;;;;;5020347;28;20032;-77
2023/04/08 06:01:00;;;;;;;21.48;17.23;;;3.90;99.90;;;;;;5014890;28;20474;-77
2023/04/08 06:03:26;;;;;;;19.77;15.43;;;3.90;99.90;;;;;;4979822;28;20040;-77
2023/04/08 06:05:53;;;;;;;19.88;16.00;;;4.00;99.90;;;;;;5014579;28;20048;-77
2023/04/08 06:08:20;;;;;;;21.83;17.13;;;4.20;99.90;;;;;;5015098;28;20040;-77
2023/04/08 06:10:50;;;;;;;20.08;16.45;;;4.40;99.90;;;;;;4994054;28;20357;-77
2023/04/08 06:13:17;;;;;;;20.67;16.50;;;4.50;99.90;;;;;;4979420;28;20040;-77
2023/04/08 06:15:43;;;;;;;23.15;16.10;;;4.70;99.90;;;;;;5014565;28;21422;-77
2023/04/08 06:18:09;;;;;;;21.65;17.25;;;4.80;99.90;;;;;;5036496;28;20935;-80
2023/04/08 06:20:36;;;;;;;20.98;15.77;;;4.90;99.90;;;;;;5013238;28;20049;-76
2023/04/08 06:23:02;;;;;;;19.38;16.52;;;5.10;99.90;;;;;;5013595;28;20032;-78
2023/04/08 06:25:28;;;;;;;22.42;17.80;;;5.20;99.90;;;;;;5032338;28;20032;-77
2023/04/08 06:27:54;;;;;;;17.85;15.57;;;5.40;99.90;;;;;;5013822;28;20040;-77
2023/04/08 06:30:21;;;;;;;17.77;15.88;;;5.50;99.90;;;;;;5010165;28;21342;-76
2023/04/08 06:32:47;;;;;;;20.92;16.88;;;5.60;99.90;;;;;;5009200;28;20037;-76
2023/04/08 06:35:14;;;;;;;19.17;16.10;;;5.80;99.90;;;;;;5032751;28;20036;-77
2023/04/08 06:37:40;;;;;;;20.70;17.27;;;5.90;99.90;;;;;;5035594;28;20055;-76
2023/04/08 06:40:07;;;;;;;21.52;15.77;;;6.00;99.90;;;;;;5033627;28;20067;-76
2023/04/08 06:42:33;;;;;;;17.08;15.23;;;6.20;99.90;;;;;;5030633;28;20549;-77
2023/04/08 06:45:15;;;;;;;18.80;15.40;;;6.30;99.90;;;;;;4998201;28;20048;-79
2023/04/08 06:47:41;;;;;;;18.38;15.48;;;6.30;99.90;;;;;;5032970;28;20041;-78
2023/04/08 06:50:08;;;;;;;15.88;13.77;;;6.40;99.90;;;;;;5022997;28;20040;-77
2023/04/08 06:52:34;;;;;;;14.68;11.82;;;6.50;99.90;;;;;;4993284;28;20044;-78
2023/04/08 06:55:00;;;;;;;15.32;13.05;;;6.70;99.90;;;;;;5016376;28;20044;-78
2023/04/08 06:57:27;;;;;;;15.10;13.50;;;6.80;99.90;;;;;;5000286;28;20044;-78
2023/04/08 06:59:53;;;;;;;20.05;14.40;;;6.80;99.90;;;;;;5034864;28;21222;-78
2023/04/08 07:02:21;;;;;;;15.63;13.07;;;6.90;99.90;;;;;;5010665;28;20036;-78
2023/04/08 07:04:48;;;;;;;15.63;13.25;;;7.00;99.90;;;;;;5036536;28;20758;-79
2023/04/08 07:07:14;;;;;;;12.10;10.80;;;7.00;99.90;;;;;;4997896;28;20495;-79
2023/04/08 07:09:42;;;;;;;13.85;11.38;;;7.10;99.90;;;;;;4995933;28;20044;-82
2023/04/08 07:12:08;;;;;;;14.25;11.82;;;7.10;99.90;;;;;;4977125;28;20629;-79
2023/04/08 07:14:34;;;;;;;14.82;11.65;;;7.20;99.90;;;;;;4982779;28;21133;-79
2023/04/08 07:17:00;;;;;;;12.35;10.15;;;7.30;99.90;;;;;;5034228;28;20039;-80
2023/04/08 07:19:27;;;;;;;11.48;9.18;;;7.40;99.90;;;;;;5034633;28;20051;-79
2023/04/08 07:21:53;;;;;;;10.82;9.32;;;7.50;99.90;;;;;;4995617;28;20053;-78
2023/04/08 07:24:20;;;;;;;10.27;9.18;;;7.70;99.90;;;;;;5034430;28;20376;-79
2023/04/08 07:26:46;;;;;;;13.25;10.77;;;7.80;99.90;;;;;;5033213;28;20033;-78
2023/04/08 07:29:12;;;;;;;11.68;10.25;;;7.90;99.90;;;;;;5010671;28;20419;-80
2023/04/08 07:31:39;;;;;;;11.52;10.32;;;8.00;99.90;;;;;;5021665;28;20032;-79
2023/04/08 07:34:05;;;;;;;10.40;8.77;;;8.00;99.90;;;;;;5009845;28;20379;-79
2023/04/08 07:36:31;;;;;;;11.75;9.05;;;8.10;99.90;;;;;;5019787;28;20305;-79
2023/04/08 07:38:57;;;;;;;13.13;9.63;;;8.20;99.90;;;;;;5000717;28;20221;-78
2023/04/08 07:41:24;;;;;;;9.13;7.50;;;8.20;99.90;;;;;;4999388;28;20048;-78
2023/04/08 07:43:50;;;;;;;12.25;9.20;;;8.30;99.90;;;;;;5030983;28;20837;-79
2023/04/08 07:46:16;;;;;;;11.05;8.77;;;8.40;99.90;;;;;;5014569;28;20032;-79
2023/04/08 07:48:43;;;;;;;11.13;7.75;;;8.60;99.90;;;;;;5011379;28;20041;-79
2023/04/08 07:51:09;;;;;;;8.43;7.50;;;8.60;99.90;;;;;;4993494;28;20047;-79
2023/04/08 07:53:35;;;;;;;7.78;6.97;;;8.80;99.90;;;;;;4991287;28;20068;-79
2023/04/08 07:56:04;;;;;;;8.45;7.50;;;8.90;99.90;;;;;;5010048;28;20471;-79
2023/04/08 07:58:31;;;;;;;9.68;6.80;;;9.00;99.90;;;;;;5012349;28;20435;-79
2023/04/08 08:00:58;;;;;;;8.73;6.90;;;9.10;99.90;;;;;;5030338;28;20033;-79
2023/04/08 08:03:24;;;;;;;12.77;8.07;;;9.30;99.90;;;;;;4996336;28;20054;-80
2023/04/08 08:05:51;;;;;;;8.07;7.03;;;9.40;99.90;;;;;;5016512;28;20479;-81
2023/04/08 08:08:17;;;;;;;9.43;7.10;;;9.50;99.90;;;;;;5012171;28;20040;-80
2023/04/08 08:10:43;;;;;;;10.90;8.30;;;9.70;99.90;;;;;;4991813;28;20083;-79
2023/04/08 08:13:11;;;;;;;7.90;7.07;;;9.80;99.90;;;;;;4988698;28;20039;-80
2023/04/08 08:15:37;;;;;;;9.63;6.88;;;9.90;99.90;;;;;;4981297;28;20040;-80
2023/04/08 08:18:04;;;;;;;12.20;9.90;;;10.10;99.90;;;;;;5009716;28;20047;-79
2023/04/08 08:20:30;;;;;;;8.25;7.20;;;10.30;99.90;;;;;;5009568;28;20064;-80
2023/04/08 08:22:56;;;;;;;8.85;6.70;;;10.50;99.90;;;;;;5030896;28;20036;-80
2023/04/08 08:25:23;;;;;;;9.00;7.65;;;10.50;99.90;;;;;;5034707;28;20456;-79
2023/04/08 08:27:49;;;;;;;9.48;7.68;;;10.60;99.90;;;;;;5014168;28;20041;-80
2023/04/08 08:30:18;;;;;;;7.78;6.80;;;10.50;99.90;;;;;;5029002;28;20055;-79
2023/04/08 08:32:45;;;;;;;8.30;7.10;;;10.40;99.90;;;;;;5024182;28;20383;-78
2023/04/08 08:35:11;;;;;;;7.32;6.55;;;10.30;99.90;;;;;;4989512;28;20044;-79
2023/04/08 08:37:37;;;;;;;8.20;6.70;;;10.30;99.90;;;;;;5031946;28;20020;-79
2023/04/08 08:40:04;;;;;;;7.28;5.72;;;10.30;99.90;;;;;;5029411;28;20045;-78
2023/04/08 08:42:30;;;;;;;7.80;5.65;;;10.20;99.90;;;;;;5010844;28;20041;-78
2023/04/08 08:44:57;;;;;;;7.70;6.13;;;10.30;99.90;;;;;;5012776;28;20041;-78
2023/04/08 08:47:24;;;;;;;7.75;6.90;;;10.30;99.90;;;;;;4994160;28;20043;-79
2023/04/08 08:49:50;;;;;;;6.00;5.45;;;10.40;99.90;;;;;;5009801;28;20044;-78
2023/04/08 08:52:17;;;;;;;5.35;4.85;;;10.60;99.90;;;;;;5001215;28;20084;-79
2023/04/08 08:54:47;;;;;;;7.63;6.85;;;10.70;99.90;;;;;;5028586;28;20027;-79
2023/04/08 08:57:17;;;;;;;7.53;6.05;;;10.90;99.90;;;;;;4989669;28;20498;-79
2023/04/08 08:59:47;;;;;;;5.85;5.05;;;11.00;99.90;;;;;;4992413;28;20368;-79
2023/04/08 09:02:28;;;;;;;5.80;5.20;;;11.10;99.90;;;;;;5002573;28;20040;-79
2023/04/08 09:05:04;;;;;;;6.68;5.32;;;11.20;99.90;;;;;;4980544;28;20040;-79
2023/04/08 09:07:35;;;;;;;8.13;6.10;;;11.40;99.90;;;;;;5031514;28;20041;-80
2023/04/08 09:10:01;;;;;;;6.35;5.15;;;11.50;99.90;;;;;;5005210;28;20056;-79
2023/04/08 09:12:28;;;;;;;7.72;6.93;;;11.70;99.90;;;;;;4987721;28;20680;-79
2023/04/08 09:15:08;;;;;;;7.88;7.07;;;11.70;99.90;;;;;;5034848;28;20383;-79
2023/04/08 09:17:37;;;;;;;8.05;7.28;;;11.70;99.90;;;;;;5013320;28;20037;-79
2023/04/08 09:20:11;;;;;;;8.82;6.90;;;11.70;99.90;;;;;;5033696;28;20044;-78
2023/04/08 09:22:57;;;;;;;7.63;6.18;;;11.70;99.90;;;;;;5010419;28;20293;-79
2023/04/08 09:25:29;;;;;;;6.38;5.78;;;11.80;99.90;;;;;;5019670;28;20033;-79
2023/04/08 09:27:55;;;;;;;7.47;6.05;;;11.80;99.90;;;;;;5038008;28;20625;-79
2023/04/08 09:30:23;;;;;;;6.35;5.65;;;11.90;99.90;;;;;;5014171;28;20036;-79
2023/04/08 09:32:53;;;;;;;8.10;6.68;;;11.90;99.90;;;;;;5009720;28;20044;-79
2023/04/08 09:35:20;;;;;;;7.20;6.50;;;12.00;99.90;;;;;;5014047;28;20593;-81
2023/04/08 09:37:47;;;;;;;7.25;6.20;;;12.10;99.90;;;;;;5032325;28;20032;-80
2023/04/08 09:40:15;;;;;;;8.98;7.68;;;12.20;99.90;;;;;;5012493;28;20051;-80
2023/04/08 09:42:47;;;;;;;8.10;6.60;;;12.40;99.90;;;;;;5030536;28;20036;-80
2023/04/08 09:45:15;;;;;;;9.13;7.35;;;12.50;99.90;;;;;;5024031;28;20025;-80
2023/04/08 09:47:54;;;;;;;6.30;5.70;;;12.60;99.90;;;;;;5044800;28;20404;-79
2023/04/08 09:50:26;;;;;;;8.60;7.15;;;12.70;99.90;;;;;;5011970;28;20064;-79
2023/04/08 09:53:00;;;;;;;8.48;7.55;;;12.90;99.90;;;;;;5007335;28;20139;-79
2023/04/08 09:55:30;;;;;;;9.18;8.18;;;13.00;99.90;;;;;;5032416;28;20075;-79
2023/04/08 09:58:21;;;;;;;7.60;6.57;;;13.00;99.90;;;;;;4980161;28;20040;-81
2023/04/08 10:00:50;;;;;;;5.68;5.07;;;13.10;99.90;;;;;;4992013;28;20044;-80
2023/04/08 10:03:28;;;;;;;7.47;6.47;;;13.10;99.90;;;;;;5009804;28;20071;-80
2023/04/08 10:05:58;;;;;;;8.32;6.75;;;13.30;99.90;;;;;;5019339;28;20047;-79
2023/04/08 10:08:26;;;;;;;8.37;6.70;;;13.30;99.90;;;;;;5020009;28;20144;-81
2023/04/08 10:10:54;;;;;;;11.02;8.13;;;13.40;99.90;;;;;;5012929;28;20048;-81
2023/04/08 10:13:22;;;;;;;8.60;7.03;;;13.50;99.90;;;;;;5008032;28;20043;-80
2023/04/08 10:15:48;;;;;;;6.80;5.93;;;13.70;99.90;;;;;;5032219;28;20581;-80
2023/04/08 10:18:17;;;;;;;7.18;6.13;;;13.70;99.90;;;;;;5032016;28;20037;-80
2023/04/08 10:20:48;;;;;;;8.15;6.45;;;13.90;99.90;;;;;;4993404;28;20083;-81
2023/04/08 10:23:16;;;;;;;9.63;7.65;;;14.20;99.90;;;;;;5009758;28;20040;-79
2023/04/08 10:25:48;;;;;;;9.95;7.10;;;14.40;99.90;;;;;;5033352;28;20036;-80
2023/04/08 10:28:17;;;;;;;8.98;6.45;;;14.50;99.90;;;;;;5000179;28;20063;-81
2023/04/08 10:30:51;;;;;;;7.57;6.57;;;14.70;99.90;;;;;;5030098;28;20040;-79
2023/04/08 10:33:18;;;;;;;7.03;6.07;;;14.90;99.90;;;;;;5000832;28;20043;-79
2023/04/08 10:36:10;;;;;;;8.95;7.03;;;15.00;99.90;;;;;;5029955;28;20063;-81
2023/04/08 10:38:38;;;;;;;6.75;5.97;;;15.10;99.90;;;;;;4991214;28;20036;-80
2023/04/08 10:41:04;;;;;;;6.63;5.50;;;15.10;99.90;;;;;;5025030;28;20462;-81
2023/04/08 10:43:32;;;;;;;5.82;5.13;;;15.20;99.90;;;;;;5020323;28;20040;-80
2023/04/08 10:45:59;;;;;;;7.75;6.20;;;15.40;99.90;;;;;;4997230;28;20039;-81
2023/04/08 10:48:27;;;;;;;9.68;6.18;;;15.50;99.90;;;;;;5031548;28;20462;-80
2023/04/08 10:50:59;;;;;;;7.50;5.72;;;15.40;99.90;;;;;;4993499;28;20123;-81
2023/04/08 10:53:31;;;;;;;6.28;5.32;;;15.30;99.90;;;;;;4992814;28;20388;-81
2023/04/08 10:56:05;;;;;;;13.15;9.55;;;15.20;99.90;;;;;;5008362;28;20043;-82
2023/04/08 10:58:31;;;;;;;7.05;6.35;;;15.10;99.90;;;;;;4980966;28;20040;-83
2023/04/08 11:01:08;;;;;;;15.73;11.95;;;15.00;99.90;;;;;;4961734;28;20037;-86
2023/04/08 11:03:35;;;;;;;14.27;10.45;;;15.00;99.90;;;;;;5004436;28;20032;-81
2023/04/08 11:06:02;;;;;;;15.30;11.93;;;15.10;99.90;;;;;;5031047;28;20059;-81
2023/04/08 11:08:29;;;;;;;6.78;5.82;;;15.30;99.90;;;;;;5015830;28;20044;-86
2023/04/08 11:10:57;;;;;;;4.65;3.83;;;15.50;99.90;;;;;;5029494;28;20040;-80
2023/04/08 11:13:24;;;;;;;5.63;4.18;;;15.60;99.90;;;;;;5024051;28;20504;-83
2023/04/08 11:15:51;;;;;;;6.65;4.72;;;16.00;99.90;;;;;;5026932;28;20036;-83
2023/04/08 11:18:17;;;;;;;5.78;4.60;;;16.50;99.90;;;;;;5010146;28;20029;-82
2023/04/08 11:20:44;;;;;;;5.35;4.82;;;16.70;99.90;;;;;;4986768;28;20059;-81
2023/04/08 11:23:14;;;;;;;5.90;4.13;;;17.00;99.90;;;;;;4987173;28;20032;-80
2023/04/08 11:25:41;;;;;;;4.95;3.83;;;17.20;99.90;;;;;;5010179;28;21579;-80
2023/04/08 11:28:08;;;;;;;5.72;3.47;;;17.10;99.90;;;;;;5012740;28;20534;-82
2023/04/08 11:30:35;;;;;;;5.50;4.35;;;17.10;99.90;;;;;;4993701;28;20063;-79
2023/04/08 11:33:01;;;;;;;4.53;3.83;;;17.10;99.90;;;;;;5010075;28;20045;-80
2023/04/08 11:35:31;;;;;;;5.57;4.97;;;17.20;99.90;;;;;;4999002;28;20032;-84
2023/04/08 11:37:58;;;;;;;5.63;4.65;;;17.20;99.90;;;;;;5033943;28;20040;-80
2023/04/08 11:40:25;;;;;;;4.40;3.42;;;17.10;99.60;;;;;;5028373;28;20032;-81
2023/04/08 11:42:52;;;;;;;5.57;4.15;;;17.00;99.70;;;;;;5023212;28;20032;-81
2023/04/08 11:45:22;;;;;;;5.38;4.18;;;16.80;99.40;;;;;;5008382;28;20036;-81
2023/04/08 11:47:48;;;;;;;4.82;3.75;;;16.50;98.80;;;;;;5008234;28;20479;-80
2023/04/08 11:50:26;;;;;;;5.40;3.97;;;16.30;98.30;;;;;;5006248;28;20032;-82
2023/04/08 11:52:54;;;;;;;4.63;4.15;;;16.10;97.50;;;;;;5033387;28;20115;-83
2023/04/08 11:55:28;;;;;;;6.68;3.92;;;15.90;97.60;;;;;;5018332;28;20040;-80
2023/04/08 11:57:55;;;;;;;4.93;3.13;;;15.80;97.90;;;;;;5015518;28;20036;-80
2023/04/08 12:00:23;;;;;;;4.70;4.18;;;15.70;98.50;;;;;;5011816;28;21067;-79
2023/04/08 12:02:51;;;;;;;6.50;4.82;;;15.70;98.40;;;;;;5024512;28;20044;-80
2023/04/08 12:05:17;;;;;;;5.30;4.55;;;15.70;98.40;;;;;;5027586;28;20024;-79
2023/04/08 12:07:44;;;;;;;5.05;4.53;;;15.70;98.40;;;;;;5012177;28;20051;-82
2023/04/08 12:10:11;;;;;;;6.07;5.40;;;15.70;98.20;;;;;;5008964;28;20464;-81
2023/04/08 12:12:38;;;;;;;7.45;4.53;;;15.60;97.80;;;;;;4985597;28;20522;-83
2023/04/08 12:15:05;;;;;;;7.47;6.35;;;15.50;98.30;;;;;;4996851;28;20051;-81
2023/04/08 12:17:31;;;;;;;4.93;4.43;;;15.60;98.40;;;;;;5025280;28;20036;-80
2023/04/08 12:19:57;;;;;;;5.38;4.80;;;15.60;98.90;;;;;;5031353;28;20051;-80
2023/04/08 12:22:24;;;;;;;6.53;5.60;;;16.00;99.30;;;;;;5000871;28;20036;-79
2023/04/08 12:24:50;;;;;;;7.53;4.93;;;17.00;98.40;;;;;;5028695;28;20032;-77
2023/04/08 12:27:17;;;;;;;4.82;4.25;;;18.10;97.70;;;;;;5028900;28;20048;-81
2023/04/08 12:29:43;;;;;;;6.30;5.13;;;19.10;96.60;;;;;;5028061;28;20040;-82
2023/04/08 12:32:09;;;;;;;5.30;4.45;;;19.60;94.40;;;;;;5002227;28;21990;-78
2023/04/08 12:34:36;;;;;;;4.93;4.38;;;19.30;92.90;;;;;;5006492;28;20036;-78
2023/04/08 12:37:02;;;;;;;5.15;4.65;;;19.30;92.70;;;;;;5011270;28;20041;-82
2023/04/08 12:39:28;;;;;;;4.07;3.35;;;19.00;91.40;;;;;;5012930;28;20040;-80
2023/04/08 12:41:55;;;;;;;6.07;4.22;;;18.60;91.80;;;;;;5003141;28;20237;-78
2023/04/08 12:44:21;;;;;;;6.57;4.53;;;18.20;92.10;;;;;;5007315;28;20041;-81
2023/04/08 12:46:48;;;;;;;5.57;4.38;;;18.00;91.90;;;;;;5028282;28;20033;-80